Time;durP1;ratioP1;P1;durP2;ratioP2;P2;SDS_P1;SDS_P2;PMS_P1;PMS_P2;Temp;Humidity;BMP_temperature;BMP_pressure;BME280_temperature;BME280_humidity;BME280_pressure;Samples;Min_cycle;Max_cycle;Signal;HPM_P1;HPM_P2
2022/08/13 00:00:24;;;;;;;;;;;23.00;83.70;;;;;;4839356;29;20006;-38
2022/08/13 00:02:51;;;;;;;;;;;22.90;83.50;;;;;;4839321;29;19912;-39
2022/08/13 00:05:24;;;;;;;;;;;23.00;83.40;;;;;;4849333;29;19912;-38
2022/08/13 00:07:50;;;;;;;;;;;22.90;83.40;;;;;;4847077;29;19923;-39
2022/08/13 00:10:30;;;;;;;;;;;22.90;83.30;;;;;;4849030;29;19912;-37
2022/08/13 00:13:01;;;;;;;;;;;22.90;83.00;;;;;;4844507;29;20175;-37
2022/08/13 00:15:28;;;;;;;;;;;23.00;83.10;;;;;;4843390;29;19916;-36
2022/08/13 00:17:56;;;;;;;;;;;22.90;83.00;;;;;;4842064;29;19950;-38
2022/08/13 00:20:23;;;;;;;;;;;22.90;83.10;;;;;;4853065;29;20490;-34
2022/08/13 00:22:49;;;;;;;;;;;22.90;83.10;;;;;;4840526;29;20401;-37
2022/08/13 00:25:15;;;;;;;;;;;22.90;83.20;;;;;;4838852;29;19926;-36
2022/08/13 00:27:47;;;;;;;;;;;22.80;83.10;;;;;;4842900;29;19955;-36
2022/08/13 00:30:15;;;;;;;;;;;22.80;83.00;;;;;;4843768;29;19979;-34
2022/08/13 00:32:45;;;;;;;;;;;22.80;82.90;;;;;;4845986;29;19912;-36
2022/08/13 00:35:11;;;;;;;;;;;22.80;83.70;;;;;;4839005;29;19912;-37
2022/08/13 00:37:37;;;;;;;;;;;22.80;83.00;;;;;;4837147;29;20444;-41
2022/08/13 00:40:06;;;;;;;;;;;22.80;83.10;;;;;;4840476;29;19916;-35
2022/08/13 00:42:32;;;;;;;;;;;22.80;83.10;;;;;;4844253;29;19913;-37
2022/08/13 00:44:58;;;;;;;;;;;22.80;82.90;;;;;;4840540;29;20282;-38
2022/08/13 00:50:13;;;;;;;;;;;22.70;83.00;;;;;;4841439;29;19949;-35
2022/08/13 00:52:40;;;;;;;;;;;22.70;83.10;;;;;;4842732;29;19920;-37
2022/08/13 00:55:10;;;;;;;;;;;22.70;83.20;;;;;;4843014;29;19987;-37
2022/08/13 00:57:36;;;;;;;;;;;22.60;83.30;;;;;;4842727;29;20360;-37
2022/08/13 01:00:06;;;;;;;;;;;22.60;83.50;;;;;;4848752;29;19960;-37
2022/08/13 01:02:32;;;;;;;;;;;22.50;83.60;;;;;;4841126;29;19912;-40
2022/08/13 01:04:58;;;;;;;;;;;22.50;83.70;;;;;;4842376;29;20437;-35
2022/08/13 01:07:24;;;;;;;;;;;22.40;83.80;;;;;;4841548;29;20281;-37
2022/08/13 01:09:50;;;;;;;;;;;22.40;84.00;;;;;;4846051;29;19919;-34
2022/08/13 01:12:15;;;;;;;;;;;22.40;84.10;;;;;;4843357;29;19915;-37
2022/08/13 01:14:42;;;;;;;;;;;22.30;84.30;;;;;;4843531;29;19920;-38
2022/08/13 01:17:08;;;;;;;;;;;22.20;84.30;;;;;;4840446;29;20451;-35
2022/08/13 01:19:36;;;;;;;;;;;22.20;84.40;;;;;;4854465;29;20007;-38
2022/08/13 01:22:02;;;;;;;;;;;22.20;84.60;;;;;;4852872;29;19919;-32
2022/08/13 01:24:31;;;;;;;;;;;22.10;84.70;;;;;;4824548;29;19924;-41
2022/08/13 01:26:57;;;;;;;;;;;22.10;84.80;;;;;;4847695;29;20526;-36
2022/08/13 01:29:23;;;;;;;;;;;22.00;84.90;;;;;;4840443;29;20366;-39
2022/08/13 01:31:51;;;;;;;;;;;22.00;85.00;;;;;;4838139;29;20263;-37
2022/08/13 01:34:17;;;;;;;;;;;22.00;85.20;;;;;;4843546;29;19931;-40
2022/08/13 01:36:46;;;;;;;;;;;21.90;85.10;;;;;;4843521;29;20434;-36
2022/08/13 01:39:12;;;;;;;;;;;21.90;85.30;;;;;;4854188;29;19908;-38
2022/08/13 01:41:38;;;;;;;;;;;21.80;85.40;;;;;;4851638;29;19912;-32
2022/08/13 01:44:05;;;;;;;;;;;21.80;85.40;;;;;;4847570;29;20362;-38
2022/08/13 01:52:04;;;;;;;;;;;21.70;85.80;;;;;;4840393;29;19977;-35
2022/08/13 01:54:31;;;;;;;;;;;21.60;86.00;;;;;;4847116;29;19917;-35
2022/08/13 01:56:59;;;;;;;;;;;21.60;86.10;;;;;;4843766;29;19912;-38
2022/08/13 01:59:24;;;;;;;;;;;21.60;86.10;;;;;;4854385;29;19916;-33
2022/08/13 02:01:50;;;;;;;;;;;21.50;86.30;;;;;;4846178;29;19918;-34
2022/08/13 02:04:15;;;;;;;;;;;21.50;86.40;;;;;;4847480;29;20019;-32
2022/08/13 02:06:41;;;;;;;;;;;21.40;86.40;;;;;;4848356;29;19924;-37
2022/08/13 02:09:06;;;;;;;;;;;21.40;86.50;;;;;;4846784;29;19916;-37
2022/08/13 02:11:34;;;;;;;;;;;21.40;86.60;;;;;;4843926;29;19964;-37
2022/08/13 02:14:03;;;;;;;;;;;21.40;86.80;;;;;;4853398;29;20330;-33
2022/08/13 02:16:29;;;;;;;;;;;21.30;87.00;;;;;;4848606;29;19965;-37
2022/08/13 02:18:55;;;;;;;;;;;21.30;87.00;;;;;;4847754;29;19939;-34
2022/08/13 02:21:22;;;;;;;;;;;21.30;87.00;;;;;;4842703;29;19958;-36
2022/08/13 02:23:56;;;;;;;;;;;21.20;87.20;;;;;;4852443;29;19912;-37
2022/08/13 02:26:23;;;;;;;;;;;21.20;87.30;;;;;;4849237;29;19916;-33
2022/08/13 02:28:51;;;;;;;;;;;21.20;87.50;;;;;;4852585;29;19912;-40
2022/08/13 02:31:18;;;;;;;;;;;21.10;87.60;;;;;;4850351;29;19972;-35
2022/08/13 02:33:43;;;;;;;;;;;21.10;87.70;;;;;;4850793;29;19917;-39
2022/08/13 02:36:10;;;;;;;;;;;21.10;87.90;;;;;;4848694;29;20006;-42
2022/08/13 02:38:36;;;;;;;;;;;21.00;88.00;;;;;;4852770;29;19951;-37
2022/08/13 02:43:46;;;;;;;;;;;20.90;88.30;;;;;;4850330;29;19945;-40
2022/08/13 02:46:12;;;;;;;;;;;20.90;88.40;;;;;;4847429;29;19924;-34
2022/08/13 02:48:40;;;;;;;;;;;20.90;88.50;;;;;;4842779;29;20617;-39
2022/08/13 02:51:05;;;;;;;;;;;20.80;88.60;;;;;;4852781;29;20436;-36
2022/08/13 02:53:31;;;;;;;;;;;20.80;88.70;;;;;;4853967;29;20018;-42
2022/08/13 02:55:58;;;;;;;;;;;20.80;88.70;;;;;;4840890;29;19912;-36
2022/08/13 02:58:24;;;;;;;;;;;20.80;88.90;;;;;;4851509;29;19915;-37
2022/08/13 03:00:51;;;;;;;;;;;20.70;88.90;;;;;;4846509;29;19983;-36
2022/08/13 03:03:17;;;;;;;;;;;20.70;89.00;;;;;;4845931;29;19912;-34
2022/08/13 03:05:43;;;;;;;;;;;20.70;89.10;;;;;;4839900;29;19920;-42
2022/08/13 03:08:09;;;;;;;;;;;20.70;89.20;;;;;;4843034;29;20392;-39
2022/08/13 03:10:34;;;;;;;;;;;20.60;89.20;;;;;;4842508;29;19975;-37
2022/08/13 03:13:07;;;;;;;;;;;20.60;89.30;;;;;;4847581;29;20003;-37
2022/08/13 03:15:34;;;;;;;;;;;20.60;89.30;;;;;;4846738;29;20445;-34
2022/08/13 03:18:00;;;;;;;;;;;20.60;89.40;;;;;;4845751;29;19912;-36
2022/08/13 03:20:25;;;;;;;;;;;20.50;89.40;;;;;;4844139;29;20388;-40
2022/08/13 03:22:53;;;;;;;;;;;20.50;89.50;;;;;;4843753;29;20226;-38
2022/08/13 03:25:19;;;;;;;;;;;20.50;89.60;;;;;;4823514;29;19917;-38
2022/08/13 03:27:45;;;;;;;;;;;20.40;89.70;;;;;;4846324;29;20461;-35
2022/08/13 03:30:12;;;;;;;;;;;20.40;89.70;;;;;;4845186;29;19912;-35
2022/08/13 03:32:46;;;;;;;;;;;20.40;89.80;;;;;;4843808;29;19917;-34
2022/08/13 03:35:14;;;;;;;;;;;20.40;89.80;;;;;;4848530;29;20472;-37
2022/08/13 03:37:40;;;;;;;;;;;20.40;89.90;;;;;;4847068;29;20366;-40
2022/08/13 03:40:06;;;;;;;;;;;20.30;90.00;;;;;;4840387;29;20007;-36
2022/08/13 03:42:31;;;;;;;;;;;20.30;90.00;;;;;;4843805;29;19948;-34
2022/08/13 03:44:57;;;;;;;;;;;20.30;90.10;;;;;;4839984;29;20378;-40
2022/08/13 03:47:23;;;;;;;;;;;20.30;90.10;;;;;;4843052;29;19924;-40
2022/08/13 03:49:48;;;;;;;;;;;20.20;90.20;;;;;;4845447;29;19913;-41
2022/08/13 03:52:14;;;;;;;;;;;20.20;90.20;;;;;;4845000;29;19972;-38
2022/08/13 03:54:41;;;;;;;;;;;20.20;90.30;;;;;;4835022;29;20365;-41
2022/08/13 03:57:07;;;;;;;;;;;20.20;90.30;;;;;;4848025;29;19916;-36
2022/08/13 03:59:33;;;;;;;;;;;20.10;90.30;;;;;;4845685;29;20362;-39
2022/08/13 04:02:01;;;;;;;;;;;20.10;90.40;;;;;;4842885;29;19919;-40
2022/08/13 04:04:27;;;;;;;;;;;20.10;90.50;;;;;;4845399;29;20351;-40
2022/08/13 04:06:52;;;;;;;;;;;20.10;90.50;;;;;;4851490;29;19959;-39
2022/08/13 04:09:17;;;;;;;;;;;20.00;90.50;;;;;;4843791;29;19923;-32
2022/08/13 04:11:43;;;;;;;;;;;20.00;90.50;;;;;;4841046;29;19916;-40
2022/08/13 04:14:08;;;;;;;;;;;20.00;90.50;;;;;;4840023;29;19940;-39
2022/08/13 04:16:34;;;;;;;;;;;20.00;90.50;;;;;;4851579;29;20370;-36
2022/08/13 04:19:03;;;;;;;;;;;20.00;90.50;;;;;;4841347;29;19912;-46
2022/08/13 04:21:31;;;;;;;;;;;20.00;90.60;;;;;;4848043;29;20469;-37
2022/08/13 04:23:57;;;;;;;;;;;20.00;90.60;;;;;;4848500;29;19921;-36
2022/08/13 04:26:24;;;;;;;;;;;20.00;90.60;;;;;;4824703;29;19920;-33
2022/08/13 04:28:53;;;;;;;;;;;20.00;90.60;;;;;;4829667;29;19920;-40
2022/08/13 04:31:19;;;;;;;;;;;19.90;90.50;;;;;;4845334;29;20023;-53
2022/08/13 04:33:45;;;;;;;;;;;20.00;90.60;;;;;;4846033;29;20011;-37
2022/08/13 04:36:11;;;;;;;;;;;19.90;90.50;;;;;;4855359;29;19943;-36
2022/08/13 04:38:37;;;;;;;;;;;19.90;90.50;;;;;;4852581;29;20377;-38
2022/08/13 04:41:03;;;;;;;;;;;20.00;90.50;;;;;;4846145;29;20223;-36
2022/08/13 04:43:29;;;;;;;;;;;19.90;90.40;;;;;;4844916;29;19975;-38
2022/08/13 04:45:58;;;;;;;;;;;19.90;90.40;;;;;;4844182;29;20447;-40
2022/08/13 04:48:24;;;;;;;;;;;20.00;90.60;;;;;;4851877;29;19924;-32
2022/08/13 04:50:50;;;;;;;;;;;20.00;90.60;;;;;;4845351;29;20377;-37
2022/08/13 04:53:42;;;;;;;;;;;20.00;90.60;;;;;;4845943;29;19913;-37
2022/08/13 04:56:09;;;;;;;;;;;20.00;90.60;;;;;;4837552;29;20262;-38
2022/08/13 04:58:35;;;;;;;;;;;20.00;90.60;;;;;;4846002;29;19948;-37
2022/08/13 05:01:11;;;;;;;;;;;20.10;90.50;;;;;;4847865;29;20353;-37
2022/08/13 05:03:41;;;;;;;;;;;20.10;90.50;;;;;;4847889;29;19912;-46
2022/08/13 05:06:11;;;;;;;;;;;20.10;90.60;;;;;;4849776;29;20000;-37
2022/08/13 05:08:39;;;;;;;;;;;20.10;90.70;;;;;;4845512;29;20495;-34
2022/08/13 05:11:06;;;;;;;;;;;20.10;90.80;;;;;;4846433;29;19920;-36
2022/08/13 05:13:34;;;;;;;;;;;20.10;90.80;;;;;;4844729;29;19920;-43
2022/08/13 05:16:00;;;;;;;;;;;20.10;90.90;;;;;;4852592;29;19911;-45
2022/08/13 05:18:27;;;;;;;;;;;20.10;91.00;;;;;;4843349;29;20388;-36
2022/08/13 05:20:53;;;;;;;;;;;20.20;90.90;;;;;;4845693;29;20802;-37
2022/08/13 05:23:19;;;;;;;;;;;20.20;90.80;;;;;;4849742;29;19991;-37
2022/08/13 05:25:45;;;;;;;;;;;20.20;90.80;;;;;;4848872;29;19916;-37
2022/08/13 05:28:10;;;;;;;;;;;20.30;90.70;;;;;;4857028;29;19916;-38
2022/08/13 05:30:38;;;;;;;;;;;20.30;90.70;;;;;;4857658;29;19916;-38
2022/08/13 05:33:13;;;;;;;;;;;20.30;90.70;;;;;;4853709;29;20375;-37
2022/08/13 05:35:43;;;;;;;;;;;20.40;90.60;;;;;;4853088;29;19956;-37
2022/08/13 05:38:09;;;;;;;;;;;20.50;90.60;;;;;;4851726;29;20373;-37
2022/08/13 05:40:35;;;;;;;;;;;20.50;90.60;;;;;;4852110;29;19924;-39
2022/08/13 05:43:02;;;;;;;;;;;20.60;90.40;;;;;;4851454;29;20302;-38
2022/08/13 05:45:27;;;;;;;;;;;20.70;90.50;;;;;;4840668;29;19960;-35
2022/08/13 05:47:53;;;;;;;;;;;20.70;90.60;;;;;;4848816;29;19920;-37
2022/08/13 05:50:18;;;;;;;;;;;20.70;90.60;;;;;;4847370;29;19912;-38
2022/08/13 05:52:44;;;;;;;;;;;20.80;90.60;;;;;;4845984;29;20294;-37
2022/08/13 05:55:11;;;;;;;;;;;20.80;90.70;;;;;;4831633;29;20154;-36
2022/08/13 05:57:37;;;;;;;;;;;20.90;90.80;;;;;;4841101;29;19912;-38
2022/08/13 06:05:32;;;;;;;;;;;21.30;90.00;;;;;;4842449;29;19980;-36
2022/08/13 06:08:01;;;;;;;;;;;21.40;90.10;;;;;;4843787;29;19916;-41
2022/08/13 06:10:27;;;;;;;;;;;21.50;89.80;;;;;;4855205;29;19951;-37
2022/08/13 06:12:52;;;;;;;;;;;21.70;89.70;;;;;;4847224;29;19959;-38
2022/08/13 06:15:22;;;;;;;;;;;21.80;90.00;;;;;;4850270;29;20281;-42
2022/08/13 06:17:50;;;;;;;;;;;21.90;90.00;;;;;;4849811;29;20381;-34
2022/08/13 06:20:17;;;;;;;;;;;22.00;90.00;;;;;;4848295;29;20453;-33
2022/08/13 06:22:45;;;;;;;;;;;22.10;89.50;;;;;;4851000;29;20362;-32
2022/08/13 06:25:10;;;;;;;;;;;22.30;89.50;;;;;;4841912;29;19962;-42
2022/08/13 06:27:36;;;;;;;;;;;22.40;88.70;;;;;;4843013;29;19916;-35
2022/08/13 06:30:02;;;;;;;;;;;22.50;89.00;;;;;;4844283;29;19912;-36
2022/08/13 06:32:30;;;;;;;;;;;22.70;88.90;;;;;;4849439;29;20292;-35
2022/08/13 06:34:56;;;;;;;;;;;22.80;88.50;;;;;;4841039;29;20349;-36
2022/08/13 06:37:22;;;;;;;;;;;23.00;88.00;;;;;;4841924;29;19968;-35
2022/08/13 06:39:50;;;;;;;;;;;23.20;87.60;;;;;;4848577;29;19999;-34
2022/08/13 06:42:17;;;;;;;;;;;23.30;87.50;;;;;;4845049;29;19999;-33
2022/08/13 06:44:44;;;;;;;;;;;23.50;86.50;;;;;;4840957;29;19916;-34
2022/08/13 06:47:09;;;;;;;;;;;23.70;86.90;;;;;;4846050;29;19968;-33
2022/08/13 06:49:35;;;;;;;;;;;23.80;87.00;;;;;;4840436;29;20357;-37
2022/08/13 06:52:00;;;;;;;;;;;24.00;86.00;;;;;;4843275;29;20412;-39
2022/08/13 06:54:26;;;;;;;;;;;24.20;86.10;;;;;;4847346;29;19919;-31
2022/08/13 06:56:53;;;;;;;;;;;24.40;85.50;;;;;;4841922;29;19921;-38
2022/08/13 06:59:23;;;;;;;;;;;24.50;85.20;;;;;;4841014;29;19916;-38
2022/08/13 07:01:57;;;;;;;;;;;24.60;84.20;;;;;;4845350;29;20049;-42
2022/08/13 07:04:23;;;;;;;;;;;24.70;84.70;;;;;;4843116;29;19919;-36
2022/08/13 07:06:50;;;;;;;;;;;25.00;83.30;;;;;;4842559;29;19919;-32
2022/08/13 07:09:17;;;;;;;;;;;25.10;84.10;;;;;;4843737;29;20381;-38
2022/08/13 07:11:44;;;;;;;;;;;25.30;83.80;;;;;;4849853;29;19912;-31
2022/08/13 07:14:10;;;;;;;;;;;25.50;83.10;;;;;;4830759;29;20294;-36
2022/08/13 07:16:36;;;;;;;;;;;25.60;82.20;;;;;;4840744;29;19928;-35
2022/08/13 07:19:02;;;;;;;;;;;25.80;81.80;;;;;;4841263;29;20007;-37
2022/08/13 07:21:28;;;;;;;;;;;26.00;81.20;;;;;;4843729;29;20072;-38
2022/08/13 07:23:55;;;;;;;;;;;26.00;82.00;;;;;;4855504;29;20377;-37
2022/08/13 07:26:21;;;;;;;;;;;26.10;80.90;;;;;;4825747;29;19965;-37
2022/08/13 07:28:49;;;;;;;;;;;26.30;81.20;;;;;;4837866;29;19955;-40
2022/08/13 07:31:22;;;;;;;;;;;26.40;80.40;;;;;;4853786;29;20266;-37
2022/08/13 07:33:51;;;;;;;;;;;26.50;80.40;;;;;;4837403;29;19913;-35
2022/08/13 07:36:19;;;;;;;;;;;26.60;80.50;;;;;;4834950;29;19941;-35
2022/08/13 07:38:45;;;;;;;;;;;26.70;79.50;;;;;;4842847;29;19923;-41
2022/08/13 07:41:13;;;;;;;;;;;26.80;80.00;;;;;;4843234;29;20318;-36
2022/08/13 07:43:42;;;;;;;;;;;26.80;80.20;;;;;;4838446;29;19916;-43
2022/08/13 07:46:10;;;;;;;;;;;26.90;81.30;;;;;;4844983;29;19919;-36
2022/08/13 07:48:39;;;;;;;;;;;27.00;80.40;;;;;;4844052;29;20400;-37
2022/08/13 07:51:06;;;;;;;;;;;27.10;80.70;;;;;;4840908;29;19920;-39
2022/08/13 07:53:36;;;;;;;;;;;27.30;80.70;;;;;;4844356;29;19919;-39
2022/08/13 07:56:02;;;;;;;;;;;27.40;80.80;;;;;;4822958;29;19912;-35
2022/08/13 07:58:28;;;;;;;;;;;27.50;79.80;;;;;;4844884;29;20362;-41
2022/08/13 08:00:59;;;;;;;;;;;27.70;79.70;;;;;;4845588;29;20278;-41
2022/08/13 08:03:30;;;;;;;;;;;27.70;80.10;;;;;;4842779;29;20361;-38
2022/08/13 08:05:57;;;;;;;;;;;27.80;80.40;;;;;;4844652;29;19984;-38
2022/08/13 08:08:24;;;;;;;;;;;27.80;80.50;;;;;;4846401;29;20289;-38
2022/08/13 08:10:51;;;;;;;;;;;28.00;79.80;;;;;;4848039;29;20429;-38
2022/08/13 08:13:16;;;;;;;;;;;28.20;79.70;;;;;;4839834;29;19913;-42
2022/08/13 08:15:45;;;;;;;;;;;28.30;79.70;;;;;;4840549;29;19916;-32
2022/08/13 08:18:11;;;;;;;;;;;28.50;80.20;;;;;;4843783;29;19912;-37
2022/08/13 08:20:36;;;;;;;;;;;28.60;77.40;;;;;;4847332;29;19943;-38
2022/08/13 08:23:02;;;;;;;;;;;28.70;77.40;;;;;;4839261;29;19955;-37
2022/08/13 08:25:28;;;;;;;;;;;28.80;77.20;;;;;;4849138;29;20280;-37
2022/08/13 08:27:53;;;;;;;;;;;28.90;77.60;;;;;;4846378;29;20425;-36
2022/08/13 08:30:20;;;;;;;;;;;28.90;78.00;;;;;;4853222;29;19959;-38
2022/08/13 08:32:51;;;;;;;;;;;29.20;77.00;;;;;;4851573;29;19912;-40
2022/08/13 08:35:35;;;;;;;;;;;29.20;76.10;;;;;;4838079;29;20350;-39
2022/08/13 08:43:36;;;;;;;;;;;29.10;76.10;;;;;;4845355;29;20012;-39
2022/08/13 08:46:03;;;;;;;;;;;29.40;75.30;;;;;;4837372;29;19923;-38
2022/08/13 08:48:30;;;;;;;;;;;29.70;75.40;;;;;;4837978;29;20361;-38
2022/08/13 08:50:56;;;;;;;;;;;29.90;75.60;;;;;;4841120;29;20431;-39
2022/08/13 08:53:23;;;;;;;;;;;30.20;75.40;;;;;;4845750;29;20291;-37
2022/08/13 08:55:53;;;;;;;;;;;30.40;75.30;;;;;;4849327;29;19912;-37
2022/08/13 08:58:19;;;;;;;;;;;30.60;75.20;;;;;;4851229;29;20309;-33
2022/08/13 09:00:47;;;;;;;;;;;30.90;74.70;;;;;;4838937;29;19916;-35
2022/08/13 09:03:17;;;;;;;;;;;31.10;75.10;;;;;;4837216;29;20003;-44
2022/08/13 09:05:45;;;;;;;;;;;31.30;74.80;;;;;;4841642;29;20422;-39
2022/08/13 09:08:13;;;;;;;;;;;31.60;74.80;;;;;;4842048;29;20088;-35
2022/08/13 09:10:39;;;;;;;;;;;31.90;73.80;;;;;;4841588;29;19960;-37
2022/08/13 09:13:05;;;;;;;;;;;32.20;73.50;;;;;;4843561;29;19919;-37
2022/08/13 09:15:33;;;;;;;;;;;32.40;72.80;;;;;;4846741;29;19965;-36
2022/08/13 09:18:00;;;;;;;;;;;32.60;72.50;;;;;;4837868;29;20307;-39
2022/08/13 09:20:28;;;;;;;;;;;32.90;71.40;;;;;;4842025;29;20342;-40
2022/08/13 09:23:14;;;;;;;;;;;32.90;71.20;;;;;;4844565;29;20603;-34
2022/08/13 09:25:46;;;;;;;;;;;33.10;71.40;;;;;;4852541;29;20396;-40
2022/08/13 09:28:11;;;;;;;;;;;33.30;71.60;;;;;;4836900;29;19916;-33
2022/08/13 09:30:38;;;;;;;;;;;33.60;70.80;;;;;;4845619;29;20416;-40
2022/08/13 09:33:04;;;;;;;;;;;33.90;70.60;;;;;;4841726;29;19941;-34
2022/08/13 09:35:30;;;;;;;;;;;34.00;69.60;;;;;;4838790;29;20297;-39
2022/08/13 09:37:57;;;;;;;;;;;34.00;69.00;;;;;;4843391;29;19968;-38
2022/08/13 09:40:26;;;;;;;;;;;34.10;68.90;;;;;;4832173;29;19960;-39
2022/08/13 09:42:57;;;;;;;;;;;34.20;68.90;;;;;;4843425;29;20739;-39
2022/08/13 09:45:25;;;;;;;;;;;34.70;67.70;;;;;;4849741;29;19919;-39
2022/08/13 09:47:51;;;;;;;;;;;35.30;69.00;;;;;;4841778;29;19952;-39
2022/08/13 09:50:16;;;;;;;;;;;35.20;67.60;;;;;;4822703;29;19923;-38
2022/08/13 09:52:42;;;;;;;;;;;35.50;67.20;;;;;;4844180;29;19916;-38
2022/08/13 09:55:09;;;;;;;;;;;35.60;67.20;;;;;;4842276;29;20429;-42
2022/08/13 09:57:48;;;;;;;;;;;35.40;66.60;;;;;;4847278;29;19920;-39
2022/08/13 10:00:16;;;;;;;;;;;35.40;66.60;;;;;;4850479;29;19968;-38
2022/08/13 10:02:44;;;;;;;;;;;35.40;66.00;;;;;;4841888;29;19920;-57
2022/08/13 10:05:10;;;;;;;;;;;35.70;65.30;;;;;;4843588;29;19916;-38
2022/08/13 10:07:39;;;;;;;;;;;35.60;65.20;;;;;;4845582;29;19922;-39
2022/08/13 10:10:05;;;;;;;;;;;35.50;65.10;;;;;;4841982;29;20424;-38
2022/08/13 10:12:31;;;;;;;;;;;35.20;65.50;;;;;;4849643;29;19912;-36
2022/08/13 10:14:56;;;;;;;;;;;34.80;66.20;;;;;;4847893;29;20357;-37
2022/08/13 10:17:22;;;;;;;;;;;34.90;65.40;;;;;;4851659;29;19912;-42
2022/08/13 10:19:47;;;;;;;;;;;34.70;65.60;;;;;;4846357;29;19912;-37
2022/08/13 10:22:13;;;;;;;;;;;34.40;66.50;;;;;;4846291;29;19916;-37
2022/08/13 10:24:38;;;;;;;;;;;34.30;66.60;;;;;;4841088;29;20373;-38
2022/08/13 10:27:04;;;;;;;;;;;34.30;66.40;;;;;;4852351;29;19919;-38
2022/08/13 10:29:29;;;;;;;;;;;34.30;67.10;;;;;;4849398;29;19912;-39
2022/08/13 10:31:55;;;;;;;;;;;34.50;66.10;;;;;;4849490;29;19912;-34
2022/08/13 10:34:22;;;;;;;;;;;34.60;66.10;;;;;;4843505;29;20381;-39
2022/08/13 10:36:49;;;;;;;;;;;34.50;66.90;;;;;;4849340;29;19913;-42
2022/08/13 10:39:14;;;;;;;;;;;34.40;66.40;;;;;;4845392;29;20439;-38
2022/08/13 10:41:42;;;;;;;;;;;34.30;65.50;;;;;;4845418;29;21284;-39
2022/08/13 10:44:08;;;;;;;;;;;34.60;65.80;;;;;;4846942;29;20277;-41
2022/08/13 10:46:33;;;;;;;;;;;34.60;65.60;;;;;;4846587;29;19935;-36
2022/08/13 10:48:59;;;;;;;;;;;34.40;66.60;;;;;;4839265;29;20652;-38
2022/08/13 10:51:25;;;;;;;;;;;34.30;66.40;;;;;;4847356;29;19912;-41
2022/08/13 10:54:00;;;;;;;;;;;34.20;66.20;;;;;;4842905;29;20050;-41
2022/08/13 10:56:27;;;;;;;;;;;34.20;66.50;;;;;;4840798;29;20284;-44
2022/08/13 10:58:54;;;;;;;;;;;34.20;66.20;;;;;;4840917;29;20291;-38
2022/08/13 11:01:23;;;;;;;;;;;34.10;66.60;;;;;;4848934;29;19920;-38
2022/08/13 11:03:52;;;;;;;;;;;34.00;66.50;;;;;;4842973;29;20618;-37
2022/08/13 11:06:17;;;;;;;;;;;33.90;67.60;;;;;;4842504;29;20386;-38
2022/08/13 11:08:44;;;;;;;;;;;33.80;66.30;;;;;;4847187;29;19919;-41
2022/08/13 11:11:10;;;;;;;;;;;33.80;67.00;;;;;;4839279;29;20448;-39
2022/08/13 11:13:36;;;;;;;;;;;33.80;67.40;;;;;;4832353;29;19916;-32
2022/08/13 11:18:47;;;;;;;;;;;33.80;67.90;;;;;;4845230;29;20387;-38
2022/08/13 11:21:13;;;;;;;;;;;33.90;66.60;;;;;;4841688;29;19954;-36
2022/08/13 11:23:38;;;;;;;;;;;33.90;65.60;;;;;;4842479;29;19935;-38
2022/08/13 11:26:04;;;;;;;;;;;33.90;64.70;;;;;;4839499;29;19916;-35
2022/08/13 11:28:29;;;;;;;;;;;33.60;64.70;;;;;;4840630;29;19916;-40
2022/08/13 11:30:55;;;;;;;;;;;33.30;63.90;;;;;;4841306;29;20266;-36
2022/08/13 11:33:22;;;;;;;;;;;33.10;65.20;;;;;;4837222;29;19992;-38
2022/08/13 11:35:47;;;;;;;;;;;33.20;65.70;;;;;;4847547;29;20420;-38
2022/08/13 11:38:13;;;;;;;;;;;33.30;66.30;;;;;;4839830;29;19956;-39
2022/08/13 11:40:44;;;;;;;;;;;33.50;65.40;;;;;;4839169;29;19916;-39
2022/08/13 11:43:09;;;;;;;;;;;33.40;66.30;;;;;;4841767;29;19913;-39
2022/08/13 11:45:34;;;;;;;;;;;33.40;67.10;;;;;;4851882;29;19935;-38
2022/08/13 11:48:01;;;;;;;;;;;33.50;66.00;;;;;;4823070;29;20045;-37
2022/08/13 11:50:26;;;;;;;;;;;33.40;64.70;;;;;;4850991;29;19919;-40
2022/08/13 11:52:51;;;;;;;;;;;33.30;65.70;;;;;;4840681;29;20369;-41
2022/08/13 11:55:17;;;;;;;;;;;33.30;66.50;;;;;;4850021;29;19919;-37
2022/08/13 11:57:42;;;;;;;;;;;33.30;66.80;;;;;;4846505;29;20357;-40
2022/08/13 12:00:08;;;;;;;;;;;33.10;66.20;;;;;;4850697;29;19913;-36
2022/08/13 12:02:34;;;;;;;;;;;33.00;67.40;;;;;;4847993;29;19916;-43
2022/08/13 12:04:59;;;;;;;;;;;33.00;67.20;;;;;;4842111;29;20085;-33
2022/08/13 12:07:26;;;;;;;;;;;32.90;67.80;;;;;;4838750;29;19920;-37
2022/08/13 12:09:52;;;;;;;;;;;33.00;66.90;;;;;;4842919;29;21478;-36
2022/08/13 12:12:17;;;;;;;;;;;33.00;67.00;;;;;;4838019;29;19924;-36
2022/08/13 12:14:43;;;;;;;;;;;33.00;66.90;;;;;;4842280;29;19912;-37
2022/08/13 12:17:08;;;;;;;;;;;32.90;66.80;;;;;;4836606;29;20421;-41
2022/08/13 12:19:34;;;;;;;;;;;32.90;67.00;;;;;;4838593;29;19988;-33
2022/08/13 12:22:00;;;;;;;;;;;33.10;66.70;;;;;;4838227;29;19912;-39
2022/08/13 12:24:26;;;;;;;;;;;33.30;66.40;;;;;;4827820;29;19913;-37
2022/08/13 12:26:52;;;;;;;;;;;33.50;65.40;;;;;;4837820;29;19963;-38
2022/08/13 12:29:17;;;;;;;;;;;33.60;65.40;;;;;;4844330;29;20422;-38
2022/08/13 12:31:43;;;;;;;;;;;33.80;65.10;;;;;;4838101;29;19916;-43
2022/08/13 12:34:08;;;;;;;;;;;33.90;64.50;;;;;;4842402;29;20369;-36
2022/08/13 12:36:34;;;;;;;;;;;33.90;65.70;;;;;;4838510;29;19924;-38
2022/08/13 12:38:59;;;;;;;;;;;34.00;64.40;;;;;;4846036;29;19920;-34
2022/08/13 12:41:25;;;;;;;;;;;34.00;65.30;;;;;;4838054;29;19916;-34
2022/08/13 12:43:50;;;;;;;;;;;34.10;64.60;;;;;;4845272;29;19919;-35
2022/08/13 12:46:16;;;;;;;;;;;34.30;64.60;;;;;;4838246;29;20469;-35
2022/08/13 12:48:41;;;;;;;;;;;34.30;64.40;;;;;;4844878;29;19916;-35
2022/08/13 12:51:07;;;;;;;;;;;34.40;63.70;;;;;;4844222;29;19919;-38
2022/08/13 12:53:32;;;;;;;;;;;34.40;63.60;;;;;;4839174;29;19956;-40
2022/08/13 12:55:58;;;;;;;;;;;34.40;63.60;;;;;;4842244;29;19948;-38
2022/08/13 12:58:24;;;;;;;;;;;34.40;64.60;;;;;;4837769;29;19920;-38
2022/08/13 13:00:51;;;;;;;;;;;34.40;63.50;;;;;;4821637;29;19955;-35
2022/08/13 13:03:17;;;;;;;;;;;34.20;63.90;;;;;;4844955;29;20426;-37
2022/08/13 13:05:44;;;;;;;;;;;34.20;64.90;;;;;;4844768;29;20003;-40
2022/08/13 13:08:14;;;;;;;;;;;34.30;63.60;;;;;;4838145;29;19916;-33
2022/08/13 13:10:40;;;;;;;;;;;34.40;63.80;;;;;;4838137;29;20439;-34
2022/08/13 13:13:06;;;;;;;;;;;34.50;63.20;;;;;;4841178;29;19913;-31
2022/08/13 13:15:31;;;;;;;;;;;34.50;64.20;;;;;;4842097;29;20413;-39
2022/08/13 13:17:56;;;;;;;;;;;34.40;62.80;;;;;;4841985;29;19913;-36
2022/08/13 13:20:22;;;;;;;;;;;34.30;63.20;;;;;;4838902;29;19976;-39
2022/08/13 13:22:47;;;;;;;;;;;34.30;63.20;;;;;;4838281;29;19916;-35
2022/08/13 13:25:13;;;;;;;;;;;34.30;64.50;;;;;;4843750;29;19923;-35
2022/08/13 13:27:38;;;;;;;;;;;34.30;64.40;;;;;;4845446;29;19923;-37
2022/08/13 13:30:08;;;;;;;;;;;34.30;63.80;;;;;;4853542;29;20047;-38
2022/08/13 13:32:33;;;;;;;;;;;34.20;63.80;;;;;;4847669;29;19971;-39
2022/08/13 13:35:00;;;;;;;;;;;34.30;64.20;;;;;;4839328;29;19912;-37
2022/08/13 13:37:25;;;;;;;;;;;34.30;64.90;;;;;;4842393;29;19912;-44
2022/08/13 13:39:51;;;;;;;;;;;34.40;66.20;;;;;;4848108;29;20415;-38
2022/08/13 13:42:17;;;;;;;;;;;34.50;64.10;;;;;;4845417;29;20306;-36
2022/08/13 13:44:42;;;;;;;;;;;34.50;64.10;;;;;;4845311;29;19919;-40
2022/08/13 13:47:08;;;;;;;;;;;34.60;64.70;;;;;;4850700;29;20331;-37
2022/08/13 13:49:33;;;;;;;;;;;34.60;64.10;;;;;;4840967;29;19916;-39
2022/08/13 13:51:59;;;;;;;;;;;34.60;63.60;;;;;;4842899;29;19927;-37
2022/08/13 13:54:24;;;;;;;;;;;34.60;63.70;;;;;;4851714;29;19987;-34
2022/08/13 13:56:49;;;;;;;;;;;34.50;64.50;;;;;;4846277;29;19920;-41
2022/08/13 13:59:15;;;;;;;;;;;34.50;64.40;;;;;;4849458;29;19935;-40
2022/08/13 14:01:41;;;;;;;;;;;34.60;63.90;;;;;;4851417;29;19920;-33
2022/08/13 14:04:06;;;;;;;;;;;34.70;63.00;;;;;;4851016;29;19923;-39
2022/08/13 14:06:32;;;;;;;;;;;34.70;62.90;;;;;;4842189;29;20461;-35
2022/08/13 14:08:57;;;;;;;;;;;34.60;62.90;;;;;;4848213;29;19918;-34
2022/08/13 14:11:23;;;;;;;;;;;34.40;62.50;;;;;;4846886;29;19912;-36
2022/08/13 14:13:48;;;;;;;;;;;34.40;62.90;;;;;;4845629;29;19926;-39
2022/08/13 14:16:14;;;;;;;;;;;34.40;63.80;;;;;;4847117;29;19916;-57
2022/08/13 14:18:41;;;;;;;;;;;34.50;63.10;;;;;;4845934;29;19947;-39
2022/08/13 14:21:07;;;;;;;;;;;34.70;62.80;;;;;;4844775;29;20466;-39
2022/08/13 14:23:33;;;;;;;;;;;34.90;62.50;;;;;;4842452;29;19919;-37
2022/08/13 14:25:59;;;;;;;;;;;34.80;63.40;;;;;;4842998;29;20369;-41
2022/08/13 14:28:25;;;;;;;;;;;34.90;62.60;;;;;;4843621;29;19964;-37
2022/08/13 14:30:52;;;;;;;;;;;34.90;62.80;;;;;;4843874;29;20158;-35
2022/08/13 14:33:18;;;;;;;;;;;34.90;62.10;;;;;;4843453;29;19912;-39
2022/08/13 14:35:44;;;;;;;;;;;34.80;62.70;;;;;;4846265;29;19916;-33
2022/08/13 14:38:13;;;;;;;;;;;34.70;63.10;;;;;;4841221;29;20389;-41